createdAt,value
2022-10-26T00:01:03.539Z,13.20
2022-10-26T00:03:33.149Z,13.10
2022-10-26T00:06:05.467Z,13.20
2022-10-26T00:08:33.360Z,13.20
2022-10-26T00:11:01.501Z,13.20
2022-10-26T00:13:29.408Z,13.20
2022-10-26T00:15:57.530Z,13.20
2022-10-26T00:18:25.661Z,13.20
2022-10-26T00:20:54.987Z,13.20
2022-10-26T00:23:23.047Z,13.20
2022-10-26T00:25:57.388Z,13.20
2022-10-26T00:28:25.381Z,13.30
2022-10-26T00:30:53.388Z,13.30
2022-10-26T00:33:21.813Z,13.30
2022-10-26T00:35:49.997Z,13.30
2022-10-26T00:38:19.214Z,13.30
2022-10-26T00:40:47.502Z,13.30
2022-10-26T00:43:16.414Z,13.30
2022-10-26T00:45:44.747Z,13.30
2022-10-26T00:48:16.648Z,13.30
2022-10-26T00:50:45.543Z,13.30
2022-10-26T00:53:13.461Z,13.30
2022-10-26T00:55:45.630Z,13.30
2022-10-26T00:58:14.778Z,13.30
2022-10-26T01:00:42.892Z,13.30
2022-10-26T01:03:11.311Z,13.40
2022-10-26T01:05:41.089Z,13.40
2022-10-26T01:08:09.686Z,13.40
2022-10-26T01:10:39.067Z,13.30
2022-10-26T01:13:10.326Z,13.30
2022-10-26T01:15:41.299Z,13.30
2022-10-26T01:18:12.284Z,13.20
2022-10-26T01:20:53.969Z,13.10
2022-10-26T01:23:27.218Z,13.00
2022-10-26T01:26:09.116Z,13.00
2022-10-26T01:28:47.391Z,13.00
2022-10-26T01:31:19.933Z,13.00
2022-10-26T01:33:51.624Z,13.10
2022-10-26T01:36:22.184Z,13.10
2022-10-26T01:38:55.476Z,13.10
2022-10-26T01:41:27.356Z,13.10
2022-10-26T01:43:57.416Z,13.10
2022-10-26T01:46:28.148Z,13.20
2022-10-26T01:48:58.783Z,13.20
2022-10-26T01:51:27.457Z,13.20
2022-10-26T01:53:55.467Z,13.20
2022-10-26T01:56:24.427Z,13.20
2022-10-26T01:59:10.872Z,13.30
2022-10-26T02:01:47.596Z,13.30
2022-10-26T02:04:20.916Z,13.30
2022-10-26T02:06:53.465Z,13.30
2022-10-26T02:09:24.998Z,13.20
2022-10-26T02:11:53.586Z,13.20
2022-10-26T02:14:23.725Z,13.00
2022-10-26T02:17:00.676Z,12.90
2022-10-26T02:19:32.981Z,12.90
2022-10-26T02:22:05.732Z,12.90
2022-10-26T02:24:35.418Z,13.00
2022-10-26T02:27:05.501Z,13.00
2022-10-26T02:29:35.235Z,13.00
2022-10-26T02:32:06.553Z,13.10
2022-10-26T02:34:35.598Z,13.20
2022-10-26T02:37:05.177Z,13.10
2022-10-26T02:39:34.725Z,13.20
2022-10-26T02:42:06.497Z,13.20
2022-10-26T02:44:38.660Z,13.20
2022-10-26T02:47:07.850Z,13.20
2022-10-26T02:49:35.835Z,13.10
2022-10-26T02:52:05.601Z,13.10
2022-10-26T02:54:38.978Z,13.00
2022-10-26T02:57:09.593Z,13.00
2022-10-26T02:59:39.101Z,12.90
2022-10-26T03:02:08.384Z,12.90
2022-10-26T03:04:36.796Z,12.90
2022-10-26T03:07:04.592Z,12.90
2022-10-26T03:09:32.430Z,12.80
2022-10-26T03:12:00.307Z,12.70
2022-10-26T03:14:28.201Z,12.70
2022-10-26T03:16:56.072Z,12.80
2022-10-26T03:19:25.851Z,12.90
2022-10-26T03:21:53.721Z,12.90
2022-10-26T03:24:21.555Z,13.00
2022-10-26T03:26:50.509Z,13.00
2022-10-26T03:29:18.500Z,13.10
2022-10-26T03:31:46.361Z,13.00
2022-10-26T03:34:14.492Z,13.10
2022-10-26T03:36:43.728Z,13.10
2022-10-26T03:39:11.546Z,13.10
2022-10-26T03:41:39.365Z,13.10
2022-10-26T03:44:07.342Z,13.20
2022-10-26T03:46:35.233Z,13.20
2022-10-26T03:49:03.126Z,13.20
2022-10-26T03:51:30.942Z,13.20
2022-10-26T03:54:00.264Z,13.20
2022-10-26T03:56:28.350Z,13.20
2022-10-26T03:58:56.226Z,13.20
2022-10-26T04:01:24.111Z,13.20
2022-10-26T04:03:52.075Z,13.20
2022-10-26T04:06:19.955Z,13.20
2022-10-26T04:08:47.814Z,13.10
2022-10-26T04:11:16.995Z,13.10
2022-10-26T04:13:44.856Z,13.00
2022-10-26T04:16:12.845Z,12.90
2022-10-26T04:18:40.670Z,12.90
2022-10-26T04:21:08.720Z,12.90
2022-10-26T04:23:38.087Z,12.90
2022-10-26T04:26:06.316Z,12.90
2022-10-26T04:28:35.633Z,12.90
2022-10-26T04:31:03.619Z,12.90
2022-10-26T04:33:31.411Z,12.90
2022-10-26T04:36:02.122Z,12.90
2022-10-26T04:38:30.294Z,12.90
2022-10-26T04:40:58.636Z,12.90
2022-10-26T04:43:26.718Z,12.90
2022-10-26T04:45:57.560Z,12.90
2022-10-26T04:50:59.601Z,12.80
2022-10-26T04:53:27.545Z,12.70
2022-10-26T04:55:57.526Z,12.70
2022-10-26T04:58:25.493Z,12.70
2022-10-26T05:00:53.916Z,12.60
2022-10-26T05:03:23.175Z,12.60
2022-10-26T05:05:54.232Z,12.60
2022-10-26T05:08:22.307Z,12.50
2022-10-26T05:10:50.866Z,12.50
2022-10-26T05:13:18.748Z,12.50
2022-10-26T05:15:46.650Z,12.50
2022-10-26T05:18:14.601Z,12.40
2022-10-26T05:20:45.190Z,12.40
2022-10-26T05:23:13.862Z,12.50
2022-10-26T05:25:41.875Z,12.40
2022-10-26T05:28:12.031Z,12.50
2022-10-26T05:30:40.221Z,12.50
2022-10-26T05:33:11.017Z,12.50
2022-10-26T05:35:38.921Z,12.50
2022-10-26T05:38:11.820Z,12.50
2022-10-26T05:40:39.929Z,12.50
2022-10-26T05:43:07.816Z,12.60
2022-10-26T05:45:35.743Z,12.60
2022-10-26T05:48:05.509Z,12.60
2022-10-26T05:50:33.411Z,12.50
2022-10-26T05:53:01.341Z,12.50
2022-10-26T05:55:31.402Z,12.60
2022-10-26T05:57:59.543Z,12.60
2022-10-26T06:00:29.509Z,12.70
2022-10-26T06:03:07.698Z,12.70
2022-10-26T06:05:38.366Z,12.80
2022-10-26T06:08:09.764Z,12.80
2022-10-26T06:10:39.536Z,12.90
2022-10-26T06:13:07.638Z,13.00
2022-10-26T06:15:39.351Z,13.00
2022-10-26T06:18:13.410Z,12.90
2022-10-26T06:20:47.654Z,12.90
2022-10-26T06:23:22.591Z,12.90
2022-10-26T06:25:56.302Z,12.90
2022-10-26T06:28:28.994Z,12.80
2022-10-26T06:30:57.991Z,12.80
2022-10-26T06:33:30.465Z,12.80
2022-10-26T06:36:05.661Z,12.80
2022-10-26T06:38:35.528Z,12.90
2022-10-26T06:41:04.906Z,13.00
2022-10-26T06:43:35.022Z,13.00
2022-10-26T06:46:06.747Z,13.20
2022-10-26T06:48:36.252Z,13.20
2022-10-26T06:51:04.422Z,13.20
2022-10-26T06:53:34.532Z,13.20
2022-10-26T06:56:02.731Z,13.20
2022-10-26T06:58:37.270Z,13.20
2022-10-26T07:01:05.488Z,13.20
2022-10-26T07:03:33.441Z,13.20
2022-10-26T07:06:01.410Z,13.20
2022-10-26T07:08:32.321Z,13.20
2022-10-26T07:11:00.223Z,13.20
2022-10-26T07:13:30.784Z,13.30
2022-10-26T07:16:00.038Z,13.40
2022-10-26T07:18:28.013Z,13.40
2022-10-26T07:20:55.860Z,13.50
2022-10-26T07:23:24.027Z,13.40
2022-10-26T07:25:52.129Z,13.50
2022-10-26T07:28:20.089Z,13.60
2022-10-26T07:30:47.929Z,13.70
2022-10-26T07:33:17.153Z,13.90
2022-10-26T07:35:45.150Z,14.00
2022-10-26T07:38:13.676Z,14.20
2022-10-26T07:40:41.581Z,14.30
2022-10-26T07:43:09.723Z,14.40
2022-10-26T07:45:37.755Z,14.50
2022-10-26T07:48:05.706Z,14.60
2022-10-26T07:50:35.002Z,14.70
2022-10-26T07:53:02.930Z,14.90
2022-10-26T07:55:30.774Z,15.00
2022-10-26T07:57:58.773Z,15.00
2022-10-26T08:00:28.786Z,14.80
2022-10-26T08:02:56.903Z,14.90
2022-10-26T08:05:24.851Z,14.90
2022-10-26T08:07:54.002Z,15.00
2022-10-26T08:10:21.917Z,15.00
2022-10-26T08:12:49.832Z,14.90
2022-10-26T08:15:17.710Z,14.80
2022-10-26T08:17:45.630Z,14.80
2022-10-26T08:20:13.575Z,14.90
2022-10-26T08:22:41.495Z,15.00
2022-10-26T08:25:10.921Z,15.20
2022-10-26T08:27:38.857Z,15.50
2022-10-26T08:30:07.248Z,15.90
2022-10-26T08:32:35.254Z,16.60
2022-10-26T08:35:05.226Z,17.60
2022-10-26T08:37:33.845Z,19.30
2022-10-26T08:40:03.019Z,21.50
2022-10-26T08:42:34.967Z,22.50
2022-10-26T08:45:04.461Z,22.30
2022-10-26T08:47:36.633Z,22.00
2022-10-26T08:50:07.376Z,22.00
2022-10-26T08:52:39.039Z,21.90
2022-10-26T08:55:12.809Z,22.80
2022-10-26T08:57:42.835Z,23.90
2022-10-26T09:00:13.070Z,25.50
2022-10-26T09:02:40.907Z,27.20
2022-10-26T09:05:13.544Z,28.40
2022-10-26T09:07:47.400Z,28.60
2022-10-26T09:10:25.712Z,29.00
2022-10-26T09:12:56.563Z,28.60
2022-10-26T09:15:29.881Z,27.70
2022-10-26T09:17:59.416Z,27.10
2022-10-26T09:20:41.585Z,25.30
2022-10-26T09:23:14.928Z,24.10
2022-10-26T09:25:43.977Z,23.10
2022-10-26T09:28:15.189Z,22.30
2022-10-26T09:30:45.212Z,21.60
2022-10-26T09:33:16.305Z,20.70
2022-10-26T09:35:45.828Z,21.00
2022-10-26T09:38:15.852Z,21.50
2022-10-26T09:40:47.302Z,21.70
2022-10-26T09:43:18.412Z,21.30
2022-10-26T09:45:47.769Z,20.90
2022-10-26T09:48:17.624Z,20.60
2022-10-26T09:50:47.847Z,20.90
2022-10-26T09:53:15.814Z,21.80
2022-10-26T09:55:44.929Z,22.70
2022-10-26T09:58:14.975Z,23.30
2022-10-26T10:00:45.082Z,23.30
2022-10-26T10:03:20.777Z,23.80
2022-10-26T10:05:52.509Z,24.10
2022-10-26T10:08:22.069Z,24.10
2022-10-26T10:11:00.393Z,24.50
2022-10-26T10:13:30.104Z,25.20
2022-10-26T10:16:03.314Z,25.60
2022-10-26T10:18:31.583Z,25.30
2022-10-26T10:21:00.191Z,24.80
2022-10-26T10:23:29.823Z,24.20
2022-10-26T10:26:01.601Z,24.00
2022-10-26T10:28:29.672Z,24.90
2022-10-26T10:30:59.516Z,24.80
2022-10-26T10:33:36.267Z,23.90
2022-10-26T10:36:06.076Z,23.30
2022-10-26T10:38:38.549Z,23.00
2022-10-26T10:41:07.116Z,23.00
2022-10-26T10:43:35.057Z,22.50
2022-10-26T10:46:03.063Z,22.20
2022-10-26T10:48:32.518Z,22.40
2022-10-26T10:51:10.960Z,23.80
2022-10-26T10:53:45.597Z,25.50
2022-10-26T10:56:23.288Z,26.40
2022-10-26T10:58:57.592Z,26.80
2022-10-26T11:01:27.531Z,27.00
2022-10-26T11:06:44.567Z,27.00
2022-10-26T11:09:13.720Z,26.40
2022-10-26T11:11:45.555Z,25.80
2022-10-26T11:14:18.051Z,25.50
2022-10-26T11:16:48.813Z,25.30
2022-10-26T11:19:19.336Z,25.40
2022-10-26T11:21:49.799Z,25.30
2022-10-26T11:24:22.877Z,24.90
2022-10-26T11:26:55.602Z,24.60
2022-10-26T11:29:26.738Z,24.40
2022-10-26T11:31:58.253Z,23.90
2022-10-26T11:34:29.835Z,23.70
2022-10-26T11:37:03.169Z,23.80
2022-10-26T11:39:35.367Z,23.90
2022-10-26T11:42:06.978Z,24.10
2022-10-26T11:44:37.319Z,24.00
2022-10-26T11:47:08.339Z,23.60
2022-10-26T11:49:40.649Z,23.40
2022-10-26T11:52:17.685Z,23.20
2022-10-26T11:54:47.774Z,22.80
2022-10-26T11:57:16.223Z,22.40
2022-10-26T11:59:46.769Z,22.20
2022-10-26T12:02:15.803Z,21.90
2022-10-26T12:04:45.817Z,21.80
2022-10-26T12:07:21.314Z,22.00
2022-10-26T12:09:49.322Z,22.20
2022-10-26T12:12:20.910Z,22.30
2022-10-26T12:14:53.540Z,22.30
2022-10-26T12:17:25.595Z,22.40
2022-10-26T12:19:56.573Z,22.70
2022-10-26T12:22:27.594Z,22.80
2022-10-26T12:25:09.020Z,22.80
2022-10-26T12:27:51.454Z,23.10
2022-10-26T12:30:27.967Z,23.20
2022-10-26T12:32:56.558Z,23.00
2022-10-26T12:35:32.294Z,22.80
2022-10-26T12:38:02.465Z,22.80
2022-10-26T12:40:41.566Z,22.90
2022-10-26T12:43:27.962Z,22.90
2022-10-26T12:46:10.912Z,22.90
2022-10-26T12:48:42.617Z,23.00
2022-10-26T12:51:40.153Z,23.00
2022-10-26T12:54:16.898Z,22.90
2022-10-26T12:56:51.258Z,23.10
2022-10-26T12:59:27.707Z,23.10
2022-10-26T13:02:03.569Z,22.90
2022-10-26T13:04:46.195Z,22.80
2022-10-26T13:07:19.187Z,23.00
2022-10-26T13:09:53.128Z,23.00
2022-10-26T13:12:21.237Z,23.00
2022-10-26T13:15:01.606Z,23.10
2022-10-26T13:17:31.786Z,23.10
2022-10-26T13:20:01.243Z,23.40
2022-10-26T13:22:29.906Z,23.70
2022-10-26T13:25:01.821Z,23.90
2022-10-26T13:27:41.801Z,24.00
2022-10-26T13:30:35.621Z,24.00
2022-10-26T13:33:04.013Z,23.80
2022-10-26T13:35:32.702Z,23.70
2022-10-26T13:38:01.447Z,23.60
2022-10-26T13:40:31.174Z,23.40
2022-10-26T13:43:00.627Z,23.50
2022-10-26T13:45:29.876Z,23.90
2022-10-26T13:48:00.263Z,24.20
2022-10-26T13:50:32.029Z,24.80
2022-10-26T13:53:01.583Z,25.00
2022-10-26T13:55:33.285Z,25.00
2022-10-26T13:58:12.086Z,24.80
2022-10-26T14:00:39.989Z,24.00
2022-10-26T14:03:14.737Z,23.60
2022-10-26T14:05:44.147Z,23.40
2022-10-26T14:08:16.215Z,23.30
2022-10-26T14:10:46.995Z,23.50
2022-10-26T14:13:15.807Z,24.00
2022-10-26T14:15:44.604Z,24.50
2022-10-26T14:18:16.148Z,25.10
2022-10-26T14:20:48.653Z,25.60
2022-10-26T14:23:26.350Z,25.90
2022-10-26T14:25:58.882Z,26.10
2022-10-26T14:28:27.991Z,26.10
2022-10-26T14:30:57.165Z,25.90
2022-10-26T14:33:27.375Z,25.70
2022-10-26T14:35:55.662Z,25.80
2022-10-26T14:38:26.512Z,25.70
2022-10-26T14:40:56.708Z,25.50
2022-10-26T14:43:25.568Z,25.40
2022-10-26T14:45:54.416Z,25.20
2022-10-26T14:48:24.180Z,24.90
2022-10-26T14:50:58.824Z,25.00
2022-10-26T14:53:31.240Z,25.00
2022-10-26T14:56:00.497Z,24.70
2022-10-26T15:01:15.597Z,24.40
2022-10-26T15:03:47.366Z,24.20
2022-10-26T15:06:45.572Z,24.10
2022-10-26T15:09:39.868Z,24.20
2022-10-26T15:12:19.073Z,24.20
2022-10-26T15:14:47.243Z,24.10
2022-10-26T15:17:20.292Z,23.80
2022-10-26T15:19:48.362Z,23.30
2022-10-26T15:22:20.711Z,22.80
2022-10-26T15:24:51.563Z,22.40
2022-10-26T15:27:20.873Z,22.10
2022-10-26T15:29:50.393Z,21.90
2022-10-26T15:32:21.058Z,21.80
2022-10-26T15:34:50.738Z,21.60
2022-10-26T15:37:18.736Z,21.40
2022-10-26T15:39:46.642Z,21.20
2022-10-26T15:42:14.733Z,20.90
2022-10-26T15:44:44.096Z,20.80
2022-10-26T15:47:18.425Z,20.60
2022-10-26T15:49:46.453Z,20.40
2022-10-26T15:52:14.498Z,20.20
2022-10-26T15:54:42.533Z,20.00
2022-10-26T15:57:15.421Z,19.90
2022-10-26T15:59:47.100Z,19.70
2022-10-26T16:02:15.710Z,19.60
2022-10-26T16:04:43.896Z,19.50
2022-10-26T16:07:13.934Z,19.30
2022-10-26T16:09:42.745Z,19.20
2022-10-26T16:12:11.514Z,19.10
2022-10-26T16:15:03.907Z,19.00
2022-10-26T16:17:29.120Z,18.90
2022-10-26T16:19:57.130Z,18.80
2022-10-26T16:22:25.238Z,18.70
2022-10-26T16:24:53.203Z,18.60
2022-10-26T16:27:21.157Z,18.60
2022-10-26T16:29:49.268Z,18.50
2022-10-26T16:32:17.091Z,18.40
2022-10-26T16:34:46.346Z,18.30
2022-10-26T16:37:14.156Z,18.30
2022-10-26T16:39:42.073Z,18.20
2022-10-26T16:42:09.974Z,18.10
2022-10-26T16:44:38.000Z,18.00
2022-10-26T16:47:06.288Z,18.00
2022-10-26T16:49:34.224Z,17.90
2022-10-26T16:52:04.304Z,17.80
2022-10-26T16:54:32.191Z,17.70
2022-10-26T16:57:00.135Z,17.70
2022-10-26T16:59:28.058Z,17.60
2022-10-26T17:01:56.166Z,17.60
2022-10-26T17:04:25.778Z,17.60
2022-10-26T17:06:54.072Z,17.60
2022-10-26T17:09:23.422Z,17.60
2022-10-26T17:11:51.635Z,17.60
2022-10-26T17:14:19.705Z,17.50
2022-10-26T17:16:47.967Z,17.50
2022-10-26T17:19:16.398Z,17.40
2022-10-26T17:21:45.879Z,17.40
2022-10-26T17:24:13.946Z,17.30
2022-10-26T17:26:43.424Z,17.30
2022-10-26T17:29:13.652Z,17.30
2022-10-26T17:31:41.970Z,17.30
2022-10-26T17:34:10.008Z,17.30
2022-10-26T17:36:38.042Z,17.30
2022-10-26T17:39:06.341Z,17.30
2022-10-26T17:41:34.568Z,17.30
2022-10-26T17:44:03.865Z,17.30
2022-10-26T17:46:31.895Z,17.30
2022-10-26T17:49:00.729Z,17.30
2022-10-26T17:51:32.110Z,17.20
2022-10-26T17:54:00.426Z,17.20
2022-10-26T17:56:29.156Z,17.10
2022-10-26T17:58:58.083Z,17.10
2022-10-26T18:01:28.606Z,17.00
2022-10-26T18:03:57.150Z,17.00
2022-10-26T18:06:25.620Z,16.90
2022-10-26T18:08:53.822Z,16.90
2022-10-26T18:11:26.798Z,16.90
2022-10-26T18:13:55.921Z,16.80
2022-10-26T18:16:25.000Z,16.70
2022-10-26T18:19:00.335Z,16.70
2022-10-26T18:21:29.298Z,16.60
2022-10-26T18:23:57.381Z,16.60
2022-10-26T18:26:26.523Z,16.60
2022-10-26T18:28:54.592Z,16.50
2022-10-26T18:31:23.619Z,16.50
2022-10-26T18:33:57.234Z,16.50
2022-10-26T18:36:25.769Z,16.40
2022-10-26T18:38:54.547Z,16.40
2022-10-26T18:41:23.655Z,16.40
2022-10-26T18:43:52.647Z,16.40
2022-10-26T18:46:23.415Z,16.40
2022-10-26T18:48:51.544Z,16.30
2022-10-26T18:51:21.740Z,16.30
2022-10-26T18:53:49.868Z,16.30
2022-10-26T18:56:18.772Z,16.30
2022-10-26T18:58:47.577Z,16.20
2022-10-26T19:01:16.476Z,16.20
2022-10-26T19:03:44.879Z,16.10
2022-10-26T19:06:13.667Z,16.10
2022-10-26T19:08:43.890Z,16.10
2022-10-26T19:11:12.964Z,16.00
2022-10-26T19:13:41.182Z,16.00
2022-10-26T19:16:17.199Z,16.10
2022-10-26T19:21:22.083Z,16.00
2022-10-26T19:23:52.077Z,16.00
2022-10-26T19:26:21.125Z,16.10
2022-10-26T19:28:49.096Z,16.10
2022-10-26T19:31:17.251Z,16.10
2022-10-26T19:33:45.185Z,16.10
2022-10-26T19:36:13.405Z,16.10
2022-10-26T19:38:41.382Z,16.10
2022-10-26T19:41:12.242Z,16.10
2022-10-26T19:43:40.764Z,16.10
2022-10-26T19:46:09.748Z,16.10
2022-10-26T19:48:38.320Z,16.10
2022-10-26T19:51:06.446Z,16.10
2022-10-26T19:53:34.608Z,16.10
2022-10-26T19:56:03.394Z,16.10
2022-10-26T19:58:32.903Z,16.10
2022-10-26T20:01:02.090Z,16.00
2022-10-26T20:03:30.750Z,16.10
2022-10-26T20:05:59.120Z,16.10
2022-10-26T20:08:27.214Z,16.10
2022-10-26T20:10:56.569Z,16.10
2022-10-26T20:13:24.656Z,16.20
2022-10-26T20:15:54.034Z,16.20
2022-10-26T20:18:21.998Z,16.20
2022-10-26T20:20:49.910Z,16.20
2022-10-26T20:23:17.854Z,16.10
2022-10-26T20:25:46.279Z,16.10
2022-10-26T20:28:14.823Z,16.10
2022-10-26T20:30:43.036Z,16.10
2022-10-26T20:33:12.787Z,16.10
2022-10-26T20:35:40.741Z,16.10
2022-10-26T20:38:16.313Z,16.10
2022-10-26T20:40:44.561Z,16.00
2022-10-26T20:43:17.968Z,16.00
2022-10-26T20:45:46.304Z,15.90
2022-10-26T20:48:16.134Z,15.90
2022-10-26T20:50:47.622Z,15.90
2022-10-26T20:53:20.018Z,15.80
2022-10-26T20:55:51.448Z,15.70
2022-10-26T20:58:21.455Z,15.60
2022-10-26T21:00:54.302Z,15.50
2022-10-26T21:03:23.543Z,15.50
2022-10-26T21:05:52.122Z,15.50
2022-10-26T21:08:20.099Z,15.40
2022-10-26T21:10:48.141Z,15.30
2022-10-26T21:13:16.376Z,15.20
2022-10-26T21:15:44.365Z,15.10
2022-10-26T21:18:12.360Z,15.10
2022-10-26T21:20:42.195Z,15.10
2022-10-26T21:23:10.374Z,15.10
2022-10-26T21:25:38.672Z,15.00
2022-10-26T21:28:07.972Z,15.00
2022-10-26T21:30:35.981Z,15.00
2022-10-26T21:33:04.004Z,15.00
2022-10-26T21:35:31.921Z,14.90
2022-10-26T21:38:01.198Z,14.90
2022-10-26T21:40:29.039Z,14.70
2022-10-26T21:42:57.058Z,14.60
2022-10-26T21:45:24.959Z,14.60
2022-10-26T21:47:53.703Z,14.50
2022-10-26T21:50:21.648Z,14.50
2022-10-26T21:52:53.596Z,14.40
2022-10-26T21:55:23.628Z,14.30
2022-10-26T21:57:53.642Z,14.20
2022-10-26T22:00:27.099Z,14.10
2022-10-26T22:02:55.058Z,14.00
2022-10-26T22:05:22.973Z,14.00
2022-10-26T22:07:51.161Z,13.90
2022-10-26T22:10:19.635Z,13.80
2022-10-26T22:12:48.894Z,13.70
2022-10-26T22:15:17.250Z,13.50
2022-10-26T22:17:45.280Z,13.40
2022-10-26T22:20:13.485Z,13.30
2022-10-26T22:22:43.723Z,13.20
2022-10-26T22:25:11.608Z,13.20
2022-10-26T22:27:39.542Z,13.10
2022-10-26T22:30:09.709Z,13.10
2022-10-26T22:32:37.575Z,13.10
2022-10-26T22:35:11.269Z,13.20
2022-10-26T22:37:55.622Z,13.30
2022-10-26T22:40:23.403Z,13.30
2022-10-26T22:42:52.201Z,13.30
2022-10-26T22:45:21.797Z,13.20
2022-10-26T22:47:49.741Z,13.20
2022-10-26T22:50:17.674Z,13.10
2022-10-26T22:52:45.525Z,12.90
2022-10-26T22:55:13.447Z,12.70
2022-10-26T22:57:41.536Z,12.60
2022-10-26T23:00:10.090Z,12.50
2022-10-26T23:02:39.551Z,12.50
2022-10-26T23:05:08.017Z,12.40
2022-10-26T23:07:35.938Z,12.30
2022-10-26T23:10:03.789Z,12.20
2022-10-26T23:12:32.592Z,12.20
2022-10-26T23:15:00.419Z,12.20
2022-10-26T23:17:28.387Z,12.10
2022-10-26T23:20:02.566Z,12.00
2022-10-26T23:22:30.426Z,12.00
2022-10-26T23:24:58.362Z,12.00
2022-10-26T23:27:26.186Z,11.90
2022-10-26T23:29:54.105Z,11.90
2022-10-26T23:32:22.014Z,11.90
2022-10-26T23:34:51.616Z,11.90
2022-10-26T23:37:22.193Z,11.90
2022-10-26T23:39:50.110Z,11.90
2022-10-26T23:42:17.995Z,11.80
2022-10-26T23:44:45.819Z,11.70
2022-10-26T23:47:13.750Z,11.70
2022-10-26T23:49:41.652Z,11.60
2022-10-26T23:52:09.556Z,11.60
2022-10-26T23:54:38.720Z,11.60
2022-10-26T23:57:07.063Z,11.60
2022-10-26T23:59:34.952Z,11.60
